Time;durP1;ratioP1;P1;durP2;ratioP2;P2;SDS_P1;SDS_P2;PMS_P1;PMS_P2;Temp;Humidity;BMP_temperature;BMP_pressure;BME280_temperature;BME280_humidity;BME280_pressure;Samples;Min_cycle;Max_cycle;Signal;HPM_P1;HPM_P2
2023/07/28 00:00:37;;;;;;;2.10;0.85;;;20.70;73.90;;;;;;10370415;28;20113;-54
2023/07/28 00:05:37;;;;;;;2.22;1.20;;;20.60;73.80;;;;;;10369724;28;20105;-53
2023/07/28 00:10:42;;;;;;;2.28;1.27;;;20.70;73.90;;;;;;10352536;28;20437;-54
2023/07/28 00:15:43;;;;;;;1.90;1.08;;;20.60;73.80;;;;;;10345669;28;20030;-53
2023/07/28 00:20:43;;;;;;;1.58;1.13;;;20.60;73.90;;;;;;10365707;28;20109;-54
2023/07/28 00:25:44;;;;;;;2.75;1.85;;;20.60;73.90;;;;;;10365512;28;20109;-53
2023/07/28 00:30:49;;;;;;;1.77;0.95;;;20.60;73.80;;;;;;10365815;28;20018;-53
2023/07/28 00:35:50;;;;;;;2.17;1.05;;;20.60;74.00;;;;;;10342360;28;20035;-54
2023/07/28 00:40:51;;;;;;;2.58;1.45;;;20.60;73.90;;;;;;10325579;28;20038;-54
2023/07/28 00:45:53;;;;;;;1.50;1.02;;;20.60;73.80;;;;;;10324477;28;20106;-54
2023/07/28 00:50:54;;;;;;;1.50;1.08;;;20.60;73.80;;;;;;10322859;28;20057;-54
2023/07/28 00:55:56;;;;;;;2.10;1.10;;;20.60;73.80;;;;;;10323844;28;20038;-53
2023/07/28 01:00:56;;;;;;;1.40;1.00;;;20.60;73.70;;;;;;10323608;28;20022;-52
2023/07/28 01:06:30;;;;;;;1.88;1.15;;;20.60;73.70;;;;;;10323797;28;20026;-54
2023/07/28 01:11:31;;;;;;;2.22;1.13;;;20.60;73.90;;;;;;10336698;28;20034;-52
2023/07/28 01:16:32;;;;;;;2.90;1.23;;;20.60;73.80;;;;;;10348738;28;20529;-54
2023/07/28 01:21:33;;;;;;;1.60;1.02;;;20.60;73.80;;;;;;10362756;28;20018;-53
2023/07/28 01:26:38;;;;;;;1.40;1.30;;;20.60;73.70;;;;;;10362121;28;20022;-52
2023/07/28 01:31:39;;;;;;;1.83;1.38;;;20.60;73.70;;;;;;10362281;28;20026;-54
2023/07/28 01:36:40;;;;;;;1.52;1.00;;;20.60;73.70;;;;;;10362767;28;20165;-54
2023/07/28 01:41:43;;;;;;;1.45;0.98;;;20.60;73.80;;;;;;10362812;28;20142;-53
2023/07/28 01:46:44;;;;;;;1.40;1.08;;;20.60;73.80;;;;;;10361752;28;20037;-53
2023/07/28 01:51:45;;;;;;;1.90;1.30;;;20.60;73.80;;;;;;10362160;28;20101;-54
2023/07/28 01:56:46;;;;;;;2.00;1.30;;;20.60;73.80;;;;;;10362546;28;20064;-54
2023/07/28 02:01:46;;;;;;;1.33;1.05;;;20.60;73.80;;;;;;10362432;28;20097;-54
2023/07/28 02:06:47;;;;;;;2.25;1.33;;;20.60;73.70;;;;;;10361955;28;20030;-54
2023/07/28 02:11:48;;;;;;;1.35;1.00;;;20.60;73.80;;;;;;10335386;28;20122;-54
2023/07/28 02:16:48;;;;;;;1.88;1.10;;;20.60;73.70;;;;;;10347528;28;20038;-53
2023/07/28 02:21:49;;;;;;;2.97;1.60;;;20.60;73.70;;;;;;10320954;28;20628;-52
2023/07/28 02:26:50;;;;;;;1.95;1.20;;;20.50;73.60;;;;;;10320915;28;20147;-53
2023/07/28 02:31:50;;;;;;;1.90;1.42;;;20.60;73.60;;;;;;10319536;28;20042;-53
2023/07/28 02:36:51;;;;;;;2.72;1.60;;;20.60;73.70;;;;;;10326834;28;20038;-53
2023/07/28 02:41:52;;;;;;;2.47;1.52;;;20.60;73.60;;;;;;10360952;28;20042;-54
2023/07/28 02:46:52;;;;;;;1.98;1.20;;;20.60;73.60;;;;;;10359362;28;20116;-54
2023/07/28 02:51:53;;;;;;;1.70;1.30;;;20.60;73.60;;;;;;10361223;28;20057;-53
2023/07/28 02:56:54;;;;;;;2.33;1.27;;;20.50;73.60;;;;;;10331391;28;20058;-53
2023/07/28 03:01:56;;;;;;;1.73;1.13;;;20.50;73.60;;;;;;10333536;28;20025;-53
2023/07/28 03:06:56;;;;;;;2.10;1.30;;;20.60;73.60;;;;;;10333776;28;20022;-54
2023/07/28 03:11:57;;;;;;;2.67;1.65;;;20.60;73.60;;;;;;10361078;28;20080;-54
2023/07/28 03:16:58;;;;;;;2.10;1.08;;;20.50;73.60;;;;;;10361894;28;20026;-54
2023/07/28 03:21:58;;;;;;;2.80;1.55;;;20.50;73.60;;;;;;10374089;28;20018;-54
2023/07/28 03:26:59;;;;;;;3.92;1.60;;;20.60;73.60;;;;;;10374589;28;20477;-52
2023/07/28 03:32:00;;;;;;;2.20;1.33;;;20.50;73.50;;;;;;10373303;28;20074;-54
2023/07/28 03:37:01;;;;;;;3.40;2.10;;;20.60;74.20;;;;;;10373124;28;20164;-53
2023/07/28 03:42:01;;;;;;;2.90;1.38;;;20.60;73.60;;;;;;10373080;28;20072;-53
2023/07/28 03:47:02;;;;;;;2.90;2.13;;;20.60;73.50;;;;;;10373402;28;20548;-53
2023/07/28 03:52:03;;;;;;;3.15;2.38;;;20.60;73.50;;;;;;10372811;28;20029;-53
2023/07/28 03:57:05;;;;;;;4.47;1.77;;;20.60;73.50;;;;;;10372983;28;20087;-52
2023/07/28 04:02:05;;;;;;;3.50;1.95;;;20.50;73.40;;;;;;10371527;28;20264;-54
2023/07/28 04:07:06;;;;;;;2.65;1.90;;;20.50;73.50;;;;;;10364606;28;20014;-55
2023/07/28 04:12:07;;;;;;;3.22;1.73;;;20.60;73.50;;;;;;10338248;28;20399;-53
2023/07/28 04:17:08;;;;;;;3.90;2.00;;;20.50;73.50;;;;;;10357235;28;20040;-53
2023/07/28 04:22:08;;;;;;;4.90;2.03;;;20.50;73.50;;;;;;10367282;28;20100;-54
2023/07/28 04:27:09;;;;;;;3.03;2.05;;;20.60;73.50;;;;;;10366572;28;20569;-54
2023/07/28 04:32:09;;;;;;;2.60;2.05;;;20.50;73.40;;;;;;10365812;28;20065;-53
2023/07/28 04:37:10;;;;;;;4.60;2.15;;;20.50;73.40;;;;;;10361670;28;20092;-54
2023/07/28 04:42:11;;;;;;;3.83;2.25;;;20.50;73.40;;;;;;10361854;28;20049;-55
2023/07/28 04:47:12;;;;;;;4.30;2.65;;;20.50;73.40;;;;;;10345923;28;20030;-54
2023/07/28 04:52:12;;;;;;;3.47;2.28;;;20.50;73.50;;;;;;10336802;28;20058;-54
2023/07/28 04:57:13;;;;;;;4.15;1.85;;;20.50;73.50;;;;;;10365048;28;20582;-55
2023/07/28 05:02:14;;;;;;;5.82;2.58;;;20.60;73.70;;;;;;10362303;28;20131;-54
2023/07/28 05:07:14;;;;;;;8.18;2.72;;;20.70;74.00;;;;;;10365926;28;20018;-54
2023/07/28 05:12:15;;;;;;;4.82;2.30;;;20.80;74.20;;;;;;10364004;28;20020;-55
2023/07/28 05:17:16;;;;;;;8.57;3.03;;;20.80;73.80;;;;;;10336232;28;20023;-55
2023/07/28 05:22:17;;;;;;;7.80;3.13;;;20.80;73.90;;;;;;10327102;28;20050;-52
2023/07/28 05:27:17;;;;;;;8.30;4.25;;;20.90;74.30;;;;;;10326855;28;20601;-54
2023/07/28 05:32:18;;;;;;;8.95;3.80;;;20.80;74.40;;;;;;10332040;28;22025;-54
2023/07/28 05:37:19;;;;;;;9.90;3.65;;;20.90;74.50;;;;;;10357824;28;20022;-54
2023/07/28 05:42:19;;;;;;;7.95;4.80;;;20.90;74.50;;;;;;10302346;28;20666;-51
2023/07/28 05:47:20;;;;;;;11.63;3.90;;;21.00;74.30;;;;;;10327500;28;20493;-53
2023/07/28 05:52:22;;;;;;;9.88;3.40;;;20.90;74.60;;;;;;10333770;28;20038;-52
2023/07/28 05:57:22;;;;;;;9.05;3.67;;;20.90;74.60;;;;;;10325292;28;20101;-50
2023/07/28 06:02:23;;;;;;;12.02;4.25;;;21.00;74.70;;;;;;10337489;28;20052;-52
2023/07/28 06:07:26;;;;;;;14.32;4.07;;;21.00;74.50;;;;;;10330452;28;20026;-52
2023/07/28 06:12:27;;;;;;;12.38;4.65;;;21.00;74.70;;;;;;10331700;28;20031;-52
2023/07/28 06:17:28;;;;;;;13.63;4.22;;;21.10;74.70;;;;;;10353903;28;20030;-49
2023/07/28 06:22:29;;;;;;;16.73;4.28;;;21.00;74.50;;;;;;10348497;28;20025;-53
2023/07/28 06:27:29;;;;;;;13.90;4.38;;;21.00;74.90;;;;;;10328115;28;20472;-49
2023/07/28 06:32:30;;;;;;;10.98;4.50;;;21.00;74.50;;;;;;10343494;28;20629;-53
2023/07/28 06:37:31;;;;;;;14.13;3.70;;;21.10;74.30;;;;;;10342686;28;20056;-54
2023/07/28 06:42:34;;;;;;;7.45;4.38;;;21.00;74.40;;;;;;10320780;28;20123;-54
2023/07/28 06:47:35;;;;;;;11.82;4.53;;;21.00;74.90;;;;;;10321130;28;20027;-54
2023/07/28 06:52:36;;;;;;;19.52;5.47;;;21.00;74.90;;;;;;10336147;28;20127;-54
2023/07/28 06:57:37;;;;;;;23.95;6.03;;;21.00;74.90;;;;;;10348423;28;20034;-52
2023/07/28 07:02:37;;;;;;;18.17;4.80;;;21.00;75.00;;;;;;10329678;28;20077;-53
2023/07/28 07:07:40;;;;;;;17.52;4.95;;;21.00;75.00;;;;;;10327248;28;20018;-52
2023/07/28 07:12:41;;;;;;;12.52;4.70;;;21.00;75.00;;;;;;10328239;28;20031;-54
2023/07/28 07:17:42;;;;;;;15.98;5.13;;;20.90;75.00;;;;;;10354635;28;20030;-53
2023/07/28 07:22:43;;;;;;;17.77;5.18;;;21.00;75.20;;;;;;10360627;28;20029;-54
2023/07/28 07:27:45;;;;;;;16.55;5.55;;;21.00;75.20;;;;;;10351352;28;20073;-54
2023/07/28 07:32:45;;;;;;;18.27;5.30;;;21.00;75.40;;;;;;10343799;28;20129;-54
2023/07/28 07:37:46;;;;;;;15.23;6.00;;;21.00;75.40;;;;;;10333842;28;20117;-55
2023/07/28 07:42:49;;;;;;;14.80;6.00;;;21.00;75.50;;;;;;10356752;28;20156;-54
2023/07/28 07:47:49;;;;;;;14.07;5.53;;;21.00;75.60;;;;;;10342141;28;20022;-53
2023/07/28 07:52:50;;;;;;;13.15;5.85;;;21.00;75.70;;;;;;10344550;28;20500;-54
2023/07/28 07:57:51;;;;;;;17.80;5.72;;;21.00;75.70;;;;;;10362586;28;20080;-55
2023/07/28 08:02:51;;;;;;;20.88;5.25;;;21.00;75.50;;;;;;10365951;28;20156;-53
2023/07/28 08:07:52;;;;;;;17.48;5.35;;;21.00;75.70;;;;;;10349759;28;20097;-53
2023/07/28 08:12:55;;;;;;;8.52;5.15;;;21.00;75.60;;;;;;10333061;28;20493;-54
2023/07/28 08:17:55;;;;;;;9.48;5.18;;;21.00;75.50;;;;;;10348042;28;20037;-56
2023/07/28 08:22:56;;;;;;;20.27;6.68;;;21.00;75.40;;;;;;10369785;28;20052;-53
2023/07/28 08:27:57;;;;;;;10.23;5.63;;;20.90;75.70;;;;;;10369078;28;20058;-54
2023/07/28 08:32:58;;;;;;;14.00;6.03;;;20.90;75.60;;;;;;10353212;28;20062;-53
2023/07/28 08:37:58;;;;;;;10.98;5.18;;;20.90;75.60;;;;;;10326538;28;20084;-53
2023/07/28 08:42:59;;;;;;;10.75;4.78;;;20.90;75.60;;;;;;10325957;28;20514;-53
2023/07/28 08:48:01;;;;;;;14.25;4.55;;;20.90;75.40;;;;;;10326438;28;20073;-54
2023/07/28 08:53:02;;;;;;;11.23;5.70;;;20.90;75.50;;;;;;10325452;28;20031;-52
2023/07/28 08:58:24;;;;;;;11.10;6.15;;;20.90;75.50;;;;;;10326484;28;20019;-53
2023/07/28 09:03:27;;;;;;;9.95;4.60;;;20.90;75.40;;;;;;10326157;28;20022;-53
2023/07/28 09:08:30;;;;;;;9.57;5.28;;;20.90;75.40;;;;;;10338007;28;20041;-52
2023/07/28 09:13:43;;;;;;;11.40;5.50;;;20.90;75.30;;;;;;10340563;28;20080;-53
2023/07/28 09:18:44;;;;;;;11.68;5.22;;;20.90;75.90;;;;;;10365391;28;20037;-53
2023/07/28 09:23:45;;;;;;;9.75;4.95;;;21.00;76.10;;;;;;10363939;28;20483;-52
2023/07/28 09:28:46;;;;;;;9.23;4.55;;;21.00;79.20;;;;;;10362009;28;20887;-53
2023/07/28 09:33:47;;;;;;;9.95;5.43;;;21.10;78.50;;;;;;10364971;28;20038;-52
2023/07/28 09:38:51;;;;;;;12.18;6.10;;;21.20;77.80;;;;;;10364653;28;20108;-53
2023/07/28 09:43:52;;;;;;;13.35;5.30;;;21.30;77.30;;;;;;10363450;28;20571;-52
2023/07/28 09:48:58;;;;;;;10.23;5.45;;;21.30;76.90;;;;;;10364482;28;20014;-53
2023/07/28 09:54:11;;;;;;;10.52;4.82;;;21.40;77.10;;;;;;10364048;28;20373;-52
2023/07/28 09:59:17;;;;;;;12.88;5.07;;;21.50;76.30;;;;;;10362738;28;20022;-51
2023/07/28 10:04:18;;;;;;;11.82;5.18;;;21.60;76.30;;;;;;10361723;28;20462;-51
2023/07/28 10:09:19;;;;;;;11.40;5.07;;;21.60;76.10;;;;;;10340301;28;20034;-52
2023/07/28 10:14:28;;;;;;;14.15;6.20;;;21.60;76.00;;;;;;10329874;28;20034;-53
2023/07/28 10:19:29;;;;;;;;;;;21.60;76.10;;;;;;10364035;28;20060;-53
2023/07/28 10:24:55;;;;;;;20.58;5.75;;;21.60;76.40;;;;;;10340108;28;19905;-53
2023/07/28 10:29:59;;;;;;;22.75;6.22;;;21.40;76.00;;;;;;10321361;28;20539;-51
2023/07/28 10:35:02;;;;;;;31.42;7.93;;;21.40;76.40;;;;;;10322920;28;20042;-53
2023/07/28 10:40:35;;;;;;;19.80;6.80;;;21.40;76.70;;;;;;10323024;28;20042;-53
2023/07/28 10:45:36;;;;;;;15.07;6.25;;;21.40;76.40;;;;;;10322015;28;20366;-53
2023/07/28 10:50:36;;;;;;;11.63;6.03;;;21.50;76.70;;;;;;10323616;28;20125;-53
2023/07/28 10:55:37;;;;;;;15.00;6.47;;;21.50;75.90;;;;;;10323808;28;20173;-53
2023/07/28 11:00:38;;;;;;;13.00;6.13;;;21.50;76.20;;;;;;10321331;28;20053;-53
2023/07/28 11:05:39;;;;;;;17.23;5.75;;;21.40;76.20;;;;;;10323100;28;20062;-52
2023/07/28 11:10:41;;;;;;;12.60;6.05;;;21.50;76.20;;;;;;10333825;28;20033;-54
2023/07/28 11:15:42;;;;;;;14.75;5.18;;;21.40;76.70;;;;;;10331038;28;20625;-54
2023/07/28 11:20:44;;;;;;;12.55;6.70;;;21.40;76.10;;;;;;10311958;28;20081;-53
2023/07/28 11:25:47;;;;;;;12.65;6.10;;;21.40;76.20;;;;;;10351596;28;20026;-53
2023/07/28 11:30:47;;;;;;;10.38;5.63;;;21.40;76.20;;;;;;10368705;28;20101;-54
2023/07/28 11:35:48;;;;;;;14.02;6.30;;;21.40;76.00;;;;;;10369638;28;20608;-53
2023/07/28 11:40:51;;;;;;;11.32;6.65;;;21.30;76.00;;;;;;10368064;28;21012;-52
2023/07/28 11:45:52;;;;;;;15.80;8.00;;;21.40;76.00;;;;;;10367646;28;20030;-54
2023/07/28 11:50:55;;;;;;;10.43;5.53;;;21.40;75.90;;;;;;10367434;28;20030;-53
2023/07/28 11:55:56;;;;;;;15.50;8.27;;;21.40;75.80;;;;;;10367906;28;20434;-54
2023/07/28 12:00:57;;;;;;;17.30;7.18;;;21.50;76.70;;;;;;10365344;28;20030;-54
2023/07/28 12:06:06;;;;;;;9.32;6.28;;;21.60;76.40;;;;;;10378479;28;20697;-52
2023/07/28 12:11:13;;;;;;;13.27;6.45;;;21.60;75.60;;;;;;10347366;28;20359;-49
2023/07/28 12:16:47;;;;;;;10.73;5.70;;;21.60;75.80;;;;;;10351356;28;20428;-50
2023/07/28 12:21:48;;;;;;;9.57;6.53;;;21.50;75.60;;;;;;10368822;28;20116;-52
2023/07/28 12:26:50;;;;;;;11.75;5.90;;;21.50;75.90;;;;;;10369125;28;20477;-51
2023/07/28 12:31:51;;;;;;;9.82;6.47;;;21.50;75.80;;;;;;10368792;28;20040;-49
2023/07/28 12:36:52;;;;;;;11.65;6.55;;;21.50;75.80;;;;;;10367315;28;20062;-53
2023/07/28 12:41:52;;;;;;;10.77;6.60;;;21.50;75.90;;;;;;10368417;28;20054;-52
2023/07/28 12:46:53;;;;;;;9.25;6.80;;;21.50;76.20;;;;;;10366791;28;20501;-50
2023/07/28 12:51:54;;;;;;;10.02;6.43;;;21.50;75.80;;;;;;10364603;28;20049;-49
2023/07/28 12:56:55;;;;;;;9.63;6.72;;;21.50;75.90;;;;;;10364809;28;20069;-51
2023/07/28 13:01:56;;;;;;;11.82;6.80;;;21.50;75.70;;;;;;10365326;28;20029;-50
2023/07/28 13:06:56;;;;;;;7.85;5.97;;;21.50;75.70;;;;;;10364911;28;20448;-51
2023/07/28 13:11:57;;;;;;;9.13;5.90;;;21.50;75.60;;;;;;10366051;28;20026;-52
2023/07/28 13:16:58;;;;;;;11.02;5.68;;;21.60;75.60;;;;;;10336717;28;20121;-51
2023/07/28 13:21:58;;;;;;;11.40;7.07;;;21.60;75.50;;;;;;10324518;28;20018;-52
2023/07/28 13:26:59;;;;;;;8.45;5.80;;;21.60;75.40;;;;;;10325309;28;20164;-50
2023/07/28 13:32:00;;;;;;;8.32;5.57;;;21.60;75.40;;;;;;10323379;28;20106;-49
2023/07/28 13:37:01;;;;;;;9.98;5.53;;;21.60;75.40;;;;;;10324357;28;20030;-51
2023/07/28 13:42:01;;;;;;;8.35;5.72;;;21.60;75.30;;;;;;10323594;28;20073;-49
2023/07/28 13:47:02;;;;;;;8.65;5.85;;;21.60;75.30;;;;;;10333282;28;20105;-51
2023/07/28 13:52:04;;;;;;;8.45;5.85;;;21.60;75.30;;;;;;10364135;28;20049;-51
2023/07/28 13:57:05;;;;;;;9.93;5.95;;;21.60;75.10;;;;;;10364423;28;20222;-50
2023/07/28 14:02:06;;;;;;;10.50;5.40;;;21.60;75.10;;;;;;10362546;28;20028;-49
2023/07/28 14:07:08;;;;;;;8.40;6.10;;;21.60;75.10;;;;;;10363665;28;20018;-49
2023/07/28 14:12:08;;;;;;;7.05;5.03;;;21.60;75.00;;;;;;10350983;28;20393;-52
2023/07/28 14:17:09;;;;;;;7.40;5.78;;;21.60;74.90;;;;;;10333171;28;20041;-48
2023/07/28 14:22:10;;;;;;;9.02;6.15;;;21.60;74.80;;;;;;10322445;28;20015;-47
2023/07/28 14:27:11;;;;;;;8.27;5.82;;;21.60;75.00;;;;;;10322566;28;20026;-50
2023/07/28 14:32:11;;;;;;;6.80;5.20;;;21.60;75.00;;;;;;10322785;28;20106;-52
2023/07/28 14:37:12;;;;;;;7.50;5.28;;;21.60;74.90;;;;;;10322222;28;20034;-52
2023/07/28 14:42:12;;;;;;;6.50;5.25;;;21.60;74.90;;;;;;10321777;28;20043;-52
2023/07/28 14:47:13;;;;;;;7.28;5.63;;;21.60;74.70;;;;;;10321818;28;20482;-47
2023/07/28 14:52:14;;;;;;;6.68;4.90;;;21.60;74.80;;;;;;10321411;28;20030;-49
2023/07/28 14:57:15;;;;;;;7.28;5.47;;;21.50;74.80;;;;;;10321525;28;20042;-50
2023/07/28 15:02:16;;;;;;;8.20;5.32;;;21.50;74.80;;;;;;10321334;28;20026;-51
2023/07/28 15:07:18;;;;;;;6.78;5.07;;;21.50;74.80;;;;;;10347754;28;20563;-52
2023/07/28 15:12:19;;;;;;;11.55;5.47;;;21.50;75.10;;;;;;10333103;28;20557;-54
2023/07/28 15:17:20;;;;;;;7.32;5.28;;;21.60;77.90;;;;;;10353226;28;20030;-53
2023/07/28 15:22:21;;;;;;;7.47;5.90;;;21.70;76.20;;;;;;10362368;28;20010;-53
2023/07/28 15:27:21;;;;;;;6.38;5.13;;;21.70;76.20;;;;;;10362346;28;20053;-52
2023/07/28 15:32:22;;;;;;;10.27;5.63;;;21.60;75.90;;;;;;10364039;28;20054;-52
2023/07/28 15:37:23;;;;;;;8.63;5.28;;;21.60;76.00;;;;;;10362637;28;20066;-53
2023/07/28 15:42:25;;;;;;;12.90;6.38;;;21.60;76.30;;;;;;10336644;28;20234;-48
2023/07/28 15:47:26;;;;;;;10.77;5.57;;;21.70;76.30;;;;;;10343080;28;20335;-55
2023/07/28 15:52:27;;;;;;;11.95;6.63;;;21.80;75.40;;;;;;10334141;28;20116;-55
2023/07/28 15:57:27;;;;;;;10.48;6.50;;;21.80;76.30;;;;;;10341624;28;20500;-54
2023/07/28 16:02:28;;;;;;;10.82;6.45;;;21.80;75.70;;;;;;10344655;28;20089;-55
2023/07/28 16:07:29;;;;;;;7.93;4.88;;;22.00;76.00;;;;;;10339520;28;20014;-54
2023/07/28 16:12:30;;;;;;;10.02;6.28;;;22.10;75.40;;;;;;10363491;28;20018;-52
2023/07/28 16:17:31;;;;;;;8.15;5.50;;;22.20;74.70;;;;;;10359882;28;20101;-53
2023/07/28 16:22:31;;;;;;;18.35;8.27;;;22.30;75.20;;;;;;10352510;28;20027;-54
2023/07/28 16:27:32;;;;;;;17.38;9.13;;;22.50;77.20;;;;;;10346661;28;20110;-53
2023/07/28 16:32:33;;;;;;;11.32;7.65;;;22.60;79.10;;;;;;10356383;28;20101;-54
2023/07/28 16:37:33;;;;;;;14.27;8.35;;;23.00;82.10;;;;;;10362013;28;20027;-54
2023/07/28 16:42:34;;;;;;;11.93;7.70;;;23.10;78.40;;;;;;10348517;28;20052;-54
2023/07/28 16:47:36;;;;;;;13.50;7.15;;;23.00;77.90;;;;;;10345540;28;20422;-53
2023/07/28 16:52:37;;;;;;;8.35;6.30;;;22.80;78.20;;;;;;10343739;28;20010;-50
2023/07/28 16:57:38;;;;;;;9.95;6.82;;;22.70;78.00;;;;;;10344137;28;20026;-54
2023/07/28 17:02:38;;;;;;;9.13;6.68;;;22.70;78.10;;;;;;10353458;28;20061;-54
2023/07/28 17:07:40;;;;;;;8.98;6.30;;;22.60;77.10;;;;;;10354857;28;20105;-54
2023/07/28 17:12:41;;;;;;;9.05;5.75;;;22.50;77.70;;;;;;10345608;28;20025;-55
2023/07/28 17:17:42;;;;;;;9.07;5.72;;;22.50;77.50;;;;;;10362858;28;20022;-53
2023/07/28 17:22:42;;;;;;;10.85;5.65;;;22.60;77.60;;;;;;10354924;28;20165;-53
2023/07/28 17:27:43;;;;;;;10.45;5.78;;;22.40;77.50;;;;;;10348861;28;20014;-54
2023/07/28 17:32:45;;;;;;;8.23;5.75;;;22.30;77.80;;;;;;10351043;28;20017;-54
2023/07/28 17:37:46;;;;;;;8.02;5.65;;;22.20;77.70;;;;;;10360280;28;20497;-55
2023/07/28 17:42:47;;;;;;;9.82;5.60;;;22.10;77.80;;;;;;10353136;28;20046;-52
2023/07/28 17:47:48;;;;;;;5.82;3.97;;;22.10;77.70;;;;;;10349994;28;20030;-53
2023/07/28 17:52:49;;;;;;;6.38;5.05;;;22.10;77.70;;;;;;10356395;28;20102;-54
2023/07/28 17:57:50;;;;;;;8.20;4.35;;;22.00;77.60;;;;;;10339829;28;20019;-55
2023/07/28 18:02:50;;;;;;;6.80;4.85;;;22.00;78.20;;;;;;10339764;28;20026;-54
2023/07/28 18:07:51;;;;;;;5.53;4.25;;;22.00;77.60;;;;;;10341921;28;20033;-52
2023/07/28 18:12:52;;;;;;;6.90;4.15;;;22.10;77.80;;;;;;10329532;28;20050;-49
2023/07/28 18:17:52;;;;;;;8.35;4.68;;;22.10;77.50;;;;;;10355636;28;20025;-50
2023/07/28 18:22:54;;;;;;;5.53;3.90;;;22.10;77.50;;;;;;10350058;28;20038;-56
2023/07/28 18:27:56;;;;;;;5.93;4.30;;;22.10;77.30;;;;;;10343558;28;20054;-54
2023/07/28 18:32:56;;;;;;;7.68;3.67;;;22.10;77.30;;;;;;10340255;28;20453;-53
2023/07/28 18:37:57;;;;;;;7.13;4.28;;;22.20;77.30;;;;;;10333851;28;20301;-49
2023/07/28 18:42:58;;;;;;;8.50;4.32;;;22.10;77.00;;;;;;10334413;28;20050;-53
2023/07/28 18:47:59;;;;;;;7.43;3.95;;;22.10;77.30;;;;;;10333875;28;20041;-52
2023/07/28 18:52:59;;;;;;;5.38;3.72;;;22.00;77.30;;;;;;10353823;28;20038;-53
2023/07/28 18:58:00;;;;;;;6.97;3.50;;;22.00;77.40;;;;;;10359109;28;20014;-52
2023/07/28 19:03:01;;;;;;;5.80;3.40;;;22.00;77.50;;;;;;10325891;28;20133;-52
2023/07/28 19:08:01;;;;;;;5.07;4.07;;;22.00;77.50;;;;;;10334392;28;20053;-51
2023/07/28 19:13:02;;;;;;;7.32;3.63;;;22.00;77.40;;;;;;10323840;28;20170;-53
2023/07/28 19:18:03;;;;;;;6.47;3.95;;;22.00;77.30;;;;;;10333074;28;20030;-51
2023/07/28 19:23:03;;;;;;;4.53;2.72;;;22.00;77.20;;;;;;10336348;28;20084;-53
2023/07/28 19:28:04;;;;;;;7.45;3.65;;;22.00;77.30;;;;;;10346202;28;20465;-53
2023/07/28 19:33:06;;;;;;;5.40;3.20;;;21.90;77.10;;;;;;10348776;28;20040;-53
2023/07/28 19:38:06;;;;;;;4.88;3.58;;;21.90;77.40;;;;;;10361674;28;20022;-53
2023/07/28 19:43:07;;;;;;;4.05;3.28;;;21.90;77.50;;;;;;10366530;28;20489;-54
2023/07/28 19:48:08;;;;;;;4.60;3.17;;;21.90;77.30;;;;;;10363514;28;20026;-53
2023/07/28 19:53:09;;;;;;;6.75;3.45;;;21.90;77.40;;;;;;10367197;28;20219;-52
2023/07/28 19:58:09;;;;;;;5.38;3.00;;;21.80;77.30;;;;;;10346104;28;20023;-54
2023/07/28 20:03:10;;;;;;;5.40;3.35;;;21.80;77.30;;;;;;10329404;28;20026;-54
2023/07/28 20:08:11;;;;;;;6.38;3.40;;;21.80;77.30;;;;;;10339411;28;20037;-52
2023/07/28 20:13:11;;;;;;;4.60;3.00;;;21.80;77.30;;;;;;10332604;28;20442;-54
2023/07/28 20:18:12;;;;;;;3.58;2.47;;;21.80;77.20;;;;;;10367951;28;20029;-52
2023/07/28 20:23:15;;;;;;;4.25;3.20;;;21.80;77.10;;;;;;10368200;28;20516;-52
2023/07/28 20:28:16;;;;;;;3.65;3.08;;;21.70;77.00;;;;;;10354470;28;20647;-54
2023/07/28 20:33:16;;;;;;;4.18;2.80;;;21.70;77.00;;;;;;10331043;28;20069;-53
2023/07/28 20:38:17;;;;;;;4.82;3.28;;;21.70;76.90;;;;;;10368889;28;20096;-53
2023/07/28 20:43:18;;;;;;;5.28;3.00;;;21.70;76.80;;;;;;10368506;28;20038;-54
2023/07/28 20:48:18;;;;;;;5.45;3.05;;;21.70;76.60;;;;;;10367783;28;20481;-53
2023/07/28 20:53:22;;;;;;;6.15;3.38;;;21.70;76.60;;;;;;10368435;28;20044;-53
2023/07/28 20:58:24;;;;;;;3.97;3.15;;;21.70;76.50;;;;;;10333042;28;20130;-53
2023/07/28 21:03:25;;;;;;;4.00;2.78;;;21.70;76.40;;;;;;10328135;28;20638;-53
2023/07/28 21:08:26;;;;;;;5.32;3.05;;;21.70;76.40;;;;;;10339228;28;20018;-53
2023/07/28 21:13:26;;;;;;;3.85;3.05;;;21.60;76.30;;;;;;10327885;28;20057;-53
2023/07/28 21:18:27;;;;;;;5.00;3.55;;;21.60;76.20;;;;;;10367557;28;20120;-54
2023/07/28 21:23:29;;;;;;;5.47;3.40;;;21.60;76.80;;;;;;10365640;28;20021;-54
2023/07/28 21:28:29;;;;;;;3.83;2.33;;;21.60;76.10;;;;;;10365521;28;20586;-52
2023/07/28 21:33:30;;;;;;;3.08;2.45;;;21.60;76.10;;;;;;10366725;28;20034;-52
2023/07/28 21:38:31;;;;;;;5.45;3.25;;;21.60;76.00;;;;;;10365795;28;20472;-51
2023/07/28 21:43:31;;;;;;;4.53;3.88;;;21.60;75.90;;;;;;10366395;28;20129;-53
2023/07/28 21:48:32;;;;;;;4.15;3.03;;;21.60;75.80;;;;;;10366745;28;20105;-53
2023/07/28 21:53:33;;;;;;;3.40;2.80;;;21.60;75.90;;;;;;10365579;28;20105;-52
2023/07/28 21:58:33;;;;;;;4.63;3.20;;;21.60;75.80;;;;;;10365928;28;20430;-53
2023/07/28 22:03:35;;;;;;;4.85;2.97;;;21.60;75.80;;;;;;10364923;28;20028;-53
2023/07/28 22:08:36;;;;;;;4.50;2.85;;;21.60;75.90;;;;;;10364927;28;20021;-53
2023/07/28 22:13:36;;;;;;;3.20;2.45;;;21.60;75.80;;;;;;10325914;28;20662;-53
2023/07/28 22:18:37;;;;;;;5.20;3.13;;;21.60;75.80;;;;;;10365382;28;20705;-52
2023/07/28 22:23:38;;;;;;;4.85;3.30;;;21.50;75.70;;;;;;10364862;28;20215;-54
2023/07/28 22:28:38;;;;;;;4.47;3.28;;;21.60;75.70;;;;;;10324456;28;20436;-52
2023/07/28 22:33:39;;;;;;;4.28;2.80;;;21.50;75.70;;;;;;10323937;28;20037;-54
2023/07/28 22:38:40;;;;;;;4.20;3.00;;;21.50;75.60;;;;;;10323931;28;20117;-54
2023/07/28 22:43:40;;;;;;;3.50;2.50;;;21.50;75.60;;;;;;10323638;28;20501;-52
2023/07/28 22:48:41;;;;;;;4.32;2.85;;;21.50;75.60;;;;;;10322476;28;20110;-54
2023/07/28 22:53:42;;;;;;;3.50;2.47;;;21.50;75.60;;;;;;10323644;28;20129;-54
2023/07/28 22:58:42;;;;;;;3.10;2.40;;;21.50;75.60;;;;;;10323740;28;20114;-53
2023/07/28 23:03:43;;;;;;;6.15;3.22;;;21.50;75.50;;;;;;10323092;28;20026;-53
2023/07/28 23:08:44;;;;;;;3.65;2.85;;;21.50;75.50;;;;;;10336364;28;20113;-53
2023/07/28 23:13:44;;;;;;;3.88;2.92;;;21.50;75.40;;;;;;10329674;28;20505;-53
2023/07/28 23:18:45;;;;;;;3.78;2.45;;;21.50;75.30;;;;;;10371557;28;20050;-53
2023/07/28 23:23:46;;;;;;;3.70;2.78;;;21.50;75.30;;;;;;10371633;28;20460;-53
2023/07/28 23:28:46;;;;;;;2.95;2.10;;;21.50;75.20;;;;;;10371986;28;20457;-52
2023/07/28 23:33:47;;;;;;;3.20;2.22;;;21.50;75.20;;;;;;10371305;28;20071;-53
2023/07/28 23:38:48;;;;;;;2.85;2.13;;;21.50;75.10;;;;;;10370833;28;20499;-54
2023/07/28 23:43:48;;;;;;;3.90;3.00;;;21.50;75.10;;;;;;10368927;28;20184;-54
2023/07/28 23:48:49;;;;;;;3.78;2.65;;;21.50;75.00;;;;;;10371303;28;20100;-54
2023/07/28 23:53:50;;;;;;;3.05;2.20;;;21.40;74.90;;;;;;10370301;28;20030;-51
2023/07/28 23:58:51;;;;;;;2.83;2.13;;;21.50;74.90;;;;;;10370101;28;20022;-53
